Middle Amana, Iowa
Current Conditions -  °F | °C
As of 1:52 AM on Wednesday 26 Nov 2014 (Local Time) from KCID Reporting Station
Clear Clear  
Wind Chill: 11°   Ceiling: Unl
Heat Index: 20°   Visibility: 9mi
Dew Point: 18°   Wind: 7mph
Humidity: 92%   Direction: 110°ESE
Pressure: 30.04"   Gusts: NA
Location:  41.8°N, 91.9°W
Report Text: KCID 260752Z AUTO 11006KT 9SM CLR M07/M08 A3004 RMK AO2 SLP184 T10671078
Loading
Personal Weather Stations






























Interactive Weather Map New forecast layout! Learn more

10-Day Weather Forecast

Advertisements
Track Severe Weather on mobile